createdAt,value
2024-02-19T00:00:52.310Z,22.28
2024-02-19T00:03:20.030Z,22.28
2024-02-19T00:05:51.545Z,22.29
2024-02-19T00:08:23.346Z,22.27
2024-02-19T00:10:56.209Z,22.26
2024-02-19T00:13:26.183Z,22.25
2024-02-19T00:15:57.209Z,22.25
2024-02-19T00:18:28.416Z,22.23
2024-02-19T00:20:58.199Z,22.22
2024-02-19T00:23:28.800Z,22.22
2024-02-19T00:25:58.708Z,22.20
2024-02-19T00:28:28.532Z,22.19
2024-02-19T00:30:58.505Z,22.18
2024-02-19T00:33:28.616Z,22.17
2024-02-19T00:35:58.620Z,22.16
2024-02-19T00:38:28.730Z,22.13
2024-02-19T00:40:58.730Z,22.12
2024-02-19T00:43:30.400Z,22.11
2024-02-19T00:46:00.960Z,22.10
2024-02-19T00:48:31.100Z,22.09
2024-02-19T00:51:01.091Z,22.08
2024-02-19T00:53:31.091Z,22.07
2024-02-19T00:56:00.936Z,22.06
2024-02-19T00:58:30.925Z,22.05
2024-02-19T01:01:01.234Z,22.04
2024-02-19T01:03:31.299Z,22.02
2024-02-19T01:06:01.237Z,22.00
2024-02-19T01:08:31.330Z,21.99
2024-02-19T01:11:01.631Z,21.98
2024-02-19T01:13:31.669Z,21.97
2024-02-19T01:16:04.065Z,21.97
2024-02-19T01:18:35.624Z,21.95
2024-02-19T01:21:05.745Z,21.94
2024-02-19T01:23:35.788Z,21.91
2024-02-19T01:26:06.845Z,21.90
2024-02-19T01:28:39.862Z,21.89
2024-02-19T01:31:10.366Z,21.87
2024-02-19T01:33:40.756Z,21.86
2024-02-19T01:36:11.071Z,21.85
2024-02-19T01:38:40.775Z,21.84
2024-02-19T01:41:10.605Z,21.82
2024-02-19T01:43:40.420Z,21.82
2024-02-19T01:46:10.637Z,21.79
2024-02-19T01:48:41.621Z,21.78
2024-02-19T01:51:11.738Z,21.75
2024-02-19T01:53:43.322Z,21.76
2024-02-19T01:56:13.180Z,21.74
2024-02-19T01:58:43.320Z,21.74
2024-02-19T02:01:14.908Z,21.74
2024-02-19T02:03:46.773Z,21.75
2024-02-19T02:06:17.108Z,21.76
2024-02-19T02:08:48.450Z,21.77
2024-02-19T02:11:19.654Z,21.68
2024-02-19T02:13:51.978Z,21.80
2024-02-19T02:16:30.879Z,21.82
2024-02-19T02:19:01.178Z,21.84
2024-02-19T02:21:31.868Z,21.86
2024-02-19T02:24:01.882Z,21.86
2024-02-19T02:26:33.298Z,21.89
2024-02-19T02:29:03.226Z,21.90
2024-02-19T02:31:33.968Z,21.93
2024-02-19T02:34:04.164Z,21.95
2024-02-19T02:36:34.589Z,21.89
2024-02-19T02:39:06.098Z,21.99
2024-02-19T02:41:39.362Z,22.01
2024-02-19T02:44:10.140Z,22.04
2024-02-19T02:46:40.126Z,22.06
2024-02-19T02:49:10.362Z,22.07
2024-02-19T02:51:40.616Z,22.09
2024-02-19T02:54:11.664Z,22.10
2024-02-19T02:56:41.570Z,22.11
2024-02-19T02:59:11.655Z,22.12
2024-02-19T03:01:43.283Z,22.11
2024-02-19T03:04:14.794Z,22.11
2024-02-19T03:06:44.902Z,22.11
2024-02-19T03:09:16.225Z,22.09
2024-02-19T03:11:46.681Z,22.09
2024-02-19T03:14:18.564Z,22.09
2024-02-19T03:16:52.185Z,21.97
2024-02-19T03:19:23.963Z,22.02
2024-02-19T03:21:54.413Z,22.06
2024-02-19T03:24:26.016Z,22.04
2024-02-19T03:26:57.658Z,22.03
2024-02-19T03:29:28.934Z,22.02
2024-02-19T03:31:59.031Z,22.01
2024-02-19T03:34:33.042Z,21.99
2024-02-19T03:37:02.412Z,21.98
2024-02-19T03:39:33.469Z,21.97
2024-02-19T03:42:04.744Z,21.96
2024-02-19T03:44:36.018Z,21.94
2024-02-19T03:47:06.029Z,21.93
2024-02-19T03:49:36.412Z,21.91
2024-02-19T03:52:06.625Z,21.90
2024-02-19T03:54:36.714Z,21.88
2024-02-19T03:57:07.108Z,21.87
2024-02-19T03:59:39.684Z,21.86
2024-02-19T04:02:10.315Z,21.84
2024-02-19T04:04:40.622Z,21.82
2024-02-19T04:07:11.403Z,21.81
2024-02-19T04:09:41.381Z,21.79
2024-02-19T04:12:11.895Z,21.78
2024-02-19T04:14:44.924Z,21.76
2024-02-19T04:17:14.872Z,21.75
2024-02-19T04:19:45.067Z,21.73
2024-02-19T04:22:15.366Z,21.71
2024-02-19T04:24:45.255Z,21.69
2024-02-19T04:27:16.679Z,21.67
2024-02-19T04:29:47.821Z,21.66
2024-02-19T04:32:20.148Z,21.65
2024-02-19T04:34:50.258Z,21.62
2024-02-19T04:37:21.491Z,21.61
2024-02-19T04:39:52.339Z,21.60
2024-02-19T04:42:22.479Z,21.56
2024-02-19T04:44:52.874Z,21.55
2024-02-19T04:47:22.633Z,21.55
2024-02-19T04:49:52.920Z,21.53
2024-02-19T04:52:23.040Z,21.51
2024-02-19T04:54:53.673Z,21.49
2024-02-19T04:57:23.716Z,21.46
2024-02-19T04:59:54.743Z,21.44
2024-02-19T05:02:24.609Z,21.43
2024-02-19T05:04:54.630Z,21.42
2024-02-19T05:07:24.863Z,21.41
2024-02-19T05:09:56.333Z,21.39
2024-02-19T05:12:26.214Z,21.37
2024-02-19T05:14:57.761Z,21.35
2024-02-19T05:17:28.019Z,21.34
2024-02-19T05:19:58.217Z,21.32
2024-02-19T05:22:28.455Z,21.30
2024-02-19T05:24:58.684Z,21.29
2024-02-19T05:27:28.860Z,21.26
2024-02-19T05:29:58.769Z,21.25
2024-02-19T05:32:28.912Z,21.23
2024-02-19T05:35:00.579Z,21.21
2024-02-19T05:37:30.555Z,21.20
2024-02-19T05:40:00.810Z,21.19
2024-02-19T05:42:31.129Z,21.16
2024-02-19T05:45:02.015Z,21.14
2024-02-19T05:47:32.377Z,21.12
2024-02-19T05:50:02.606Z,21.10
2024-02-19T05:52:32.729Z,21.09
2024-02-19T05:55:04.098Z,21.07
2024-02-19T05:57:34.097Z,21.05
2024-02-19T06:00:05.266Z,21.04
2024-02-19T06:02:35.720Z,21.01
2024-02-19T06:07:39.261Z,21.03
2024-02-19T06:10:10.594Z,20.97
2024-02-19T06:12:41.143Z,20.95
2024-02-19T06:15:11.862Z,20.94
2024-02-19T06:17:41.833Z,20.91
2024-02-19T06:20:12.830Z,20.89
2024-02-19T06:22:42.930Z,20.88
2024-02-19T06:25:13.489Z,20.86
2024-02-19T06:27:43.522Z,20.84
2024-02-19T06:30:14.059Z,20.81
2024-02-19T06:32:44.059Z,20.80
2024-02-19T06:35:14.087Z,20.77
2024-02-19T06:37:44.337Z,20.75
2024-02-19T06:40:15.529Z,20.74
2024-02-19T06:42:46.598Z,20.72
2024-02-19T06:45:17.204Z,20.70
2024-02-19T06:47:47.343Z,20.69
2024-02-19T06:50:18.153Z,20.67
2024-02-19T06:52:48.613Z,20.65
2024-02-19T06:55:19.535Z,20.57
2024-02-19T06:57:50.820Z,20.64
2024-02-19T07:00:22.351Z,20.65
2024-02-19T07:02:52.644Z,20.66
2024-02-19T07:05:23.622Z,20.67
2024-02-19T07:07:53.784Z,20.67
2024-02-19T07:10:23.815Z,20.69
2024-02-19T07:12:53.628Z,20.71
2024-02-19T07:15:23.621Z,20.73
2024-02-19T07:17:53.877Z,20.74
2024-02-19T07:20:24.526Z,20.75
2024-02-19T07:22:54.695Z,20.66
2024-02-19T07:25:24.780Z,20.79
2024-02-19T07:27:54.786Z,20.79
2024-02-19T07:30:24.972Z,20.82
2024-02-19T07:32:55.091Z,20.84
2024-02-19T07:35:26.044Z,20.86
2024-02-19T07:37:56.159Z,20.88
2024-02-19T07:40:29.883Z,20.90
2024-02-19T07:43:00.279Z,20.92
2024-02-19T07:45:30.560Z,20.95
2024-02-19T07:48:02.143Z,20.96
2024-02-19T07:50:33.472Z,20.98
2024-02-19T07:53:03.646Z,20.99
2024-02-19T07:55:34.166Z,21.01
2024-02-19T07:58:04.233Z,21.03
2024-02-19T08:00:34.234Z,21.06
2024-02-19T08:03:06.003Z,21.07
2024-02-19T08:05:35.973Z,21.09
2024-02-19T08:08:06.382Z,21.11
2024-02-19T08:10:37.496Z,21.14
2024-02-19T08:13:08.840Z,21.14
2024-02-19T08:15:41.143Z,21.14
2024-02-19T08:18:12.342Z,21.01
2024-02-19T08:20:42.818Z,21.01
2024-02-19T08:23:12.840Z,21.13
2024-02-19T08:25:44.117Z,21.11
2024-02-19T08:28:14.104Z,21.10
2024-02-19T08:30:44.135Z,21.09
2024-02-19T08:33:14.549Z,21.07
2024-02-19T08:35:44.854Z,21.06
2024-02-19T08:38:15.991Z,21.05
2024-02-19T08:40:45.880Z,21.02
2024-02-19T08:43:17.044Z,21.02
2024-02-19T08:45:47.752Z,21.00
2024-02-19T08:48:23.003Z,20.89
2024-02-19T08:50:55.420Z,20.96
2024-02-19T08:53:25.689Z,20.94
2024-02-19T08:55:55.503Z,20.93
2024-02-19T08:58:25.670Z,20.91
2024-02-19T09:00:55.733Z,20.88
2024-02-19T09:03:27.010Z,20.87
2024-02-19T09:05:58.408Z,20.86
2024-02-19T09:08:28.661Z,20.83
2024-02-19T09:10:59.690Z,20.81
2024-02-19T09:13:29.713Z,20.80
2024-02-19T09:15:59.840Z,20.81
2024-02-19T09:18:30.516Z,20.81
2024-02-19T09:21:00.503Z,20.81
2024-02-19T09:23:31.427Z,20.85
2024-02-19T09:26:01.679Z,20.84
2024-02-19T09:28:31.784Z,20.85
2024-02-19T09:31:01.875Z,20.86
2024-02-19T09:33:31.641Z,20.88
2024-02-19T09:36:01.430Z,20.90
2024-02-19T09:38:32.883Z,20.91
2024-02-19T09:41:04.175Z,20.92
2024-02-19T09:43:34.366Z,20.93
2024-02-19T09:46:09.026Z,20.95
2024-02-19T09:48:39.926Z,20.97
2024-02-19T09:51:10.506Z,20.97
2024-02-19T09:53:41.580Z,20.99
2024-02-19T09:56:12.811Z,21.00
2024-02-19T09:58:43.715Z,21.03
2024-02-19T10:01:13.884Z,21.05
2024-02-19T10:03:44.164Z,21.06
2024-02-19T10:06:14.357Z,21.08
2024-02-19T10:08:44.246Z,21.09
2024-02-19T10:11:14.449Z,21.11
2024-02-19T10:13:44.342Z,21.13
2024-02-19T10:16:15.470Z,21.15
2024-02-19T10:18:47.153Z,21.16
2024-02-19T10:21:19.273Z,21.19
2024-02-19T10:23:50.188Z,21.20
2024-02-19T10:26:21.119Z,21.21
2024-02-19T10:28:56.784Z,21.24
2024-02-19T10:31:27.514Z,21.24
2024-02-19T10:33:59.392Z,21.26
2024-02-19T10:36:29.578Z,21.29
2024-02-19T10:38:59.598Z,21.30
2024-02-19T10:41:30.456Z,21.32
2024-02-19T10:44:02.021Z,21.33
2024-02-19T10:46:32.478Z,21.35
2024-02-19T10:49:02.560Z,21.37
2024-02-19T10:51:33.472Z,21.38
2024-02-19T10:54:07.086Z,21.39
2024-02-19T10:56:41.882Z,21.41
2024-02-19T10:59:12.394Z,21.43
2024-02-19T11:01:46.577Z,21.43
2024-02-19T11:04:22.410Z,21.43
2024-02-19T11:06:57.366Z,21.41
2024-02-19T11:09:31.016Z,21.40
2024-02-19T11:12:03.068Z,21.39
2024-02-19T11:14:34.656Z,21.38
2024-02-19T11:17:04.899Z,21.37
2024-02-19T11:19:42.972Z,21.35
2024-02-19T11:22:15.064Z,21.34
2024-02-19T11:24:45.226Z,21.32
2024-02-19T11:27:15.218Z,21.31
2024-02-19T11:29:48.355Z,21.29
2024-02-19T11:32:21.821Z,21.28
2024-02-19T11:34:53.140Z,21.25
2024-02-19T11:37:23.238Z,21.21
2024-02-19T11:39:53.229Z,21.21
2024-02-19T11:42:24.967Z,21.19
2024-02-19T11:44:54.880Z,21.17
2024-02-19T11:47:26.963Z,21.15
2024-02-19T11:49:57.965Z,21.14
2024-02-19T11:52:27.943Z,21.12
2024-02-19T11:55:00.966Z,21.08
2024-02-19T11:57:30.704Z,21.07
2024-02-19T12:00:03.000Z,21.05
2024-02-19T12:05:23.984Z,21.01
2024-02-19T12:07:54.069Z,21.01
2024-02-19T12:10:24.313Z,21.01
2024-02-19T12:12:56.054Z,21.00
2024-02-19T12:15:26.556Z,21.04
2024-02-19T12:17:56.627Z,21.06
2024-02-19T12:20:26.633Z,20.98
2024-02-19T12:22:56.822Z,20.98
2024-02-19T12:25:27.610Z,21.12
2024-02-19T12:27:57.434Z,21.16
2024-02-19T12:30:27.502Z,21.20
2024-02-19T12:33:00.265Z,21.24
2024-02-19T12:35:30.192Z,21.28
2024-02-19T12:38:00.429Z,21.32
2024-02-19T12:40:30.496Z,21.36
2024-02-19T12:43:00.749Z,21.39
2024-02-19T12:45:30.495Z,21.40
2024-02-19T12:48:00.591Z,21.44
2024-02-19T12:50:31.333Z,21.46
2024-02-19T12:53:02.843Z,21.51
2024-02-19T12:55:33.190Z,21.54
2024-02-19T12:58:03.292Z,21.58
2024-02-19T13:00:33.304Z,21.60
2024-02-19T13:03:03.262Z,21.61
2024-02-19T13:05:33.258Z,21.63
2024-02-19T13:08:03.512Z,21.65
2024-02-19T13:10:35.252Z,21.68
2024-02-19T13:13:05.718Z,21.70
2024-02-19T13:15:37.619Z,21.73
2024-02-19T13:18:08.060Z,21.74
2024-02-19T13:20:38.950Z,21.73
2024-02-19T13:23:08.923Z,21.79
2024-02-19T13:25:39.145Z,21.81
2024-02-19T13:28:13.129Z,21.83
2024-02-19T13:30:43.453Z,21.85
2024-02-19T13:33:13.625Z,21.88
2024-02-19T13:35:43.888Z,21.92
2024-02-19T13:38:14.898Z,21.95
2024-02-19T13:40:45.023Z,21.98
2024-02-19T13:43:16.424Z,22.00
2024-02-19T13:46:08.254Z,22.01
2024-02-19T13:48:38.950Z,22.04
2024-02-19T13:51:08.873Z,22.07
2024-02-19T13:53:39.143Z,22.07
2024-02-19T13:56:10.385Z,22.09
2024-02-19T13:58:40.363Z,22.12
2024-02-19T14:01:12.077Z,22.14
2024-02-19T14:03:42.222Z,22.16
2024-02-19T14:06:14.845Z,22.17
2024-02-19T14:08:48.232Z,22.21
2024-02-19T14:11:18.458Z,22.22
2024-02-19T14:13:57.540Z,22.25
2024-02-19T14:16:22.189Z,22.21
2024-02-19T14:18:53.058Z,22.28
2024-02-19T14:21:22.980Z,22.28
2024-02-19T14:23:54.381Z,22.32
2024-02-19T14:26:26.416Z,22.33
2024-02-19T14:28:57.796Z,22.33
2024-02-19T14:31:29.367Z,22.32
2024-02-19T14:33:59.538Z,22.31
2024-02-19T14:36:29.981Z,22.29
2024-02-19T14:39:00.181Z,22.29
2024-02-19T14:41:31.411Z,22.28
2024-02-19T14:44:01.665Z,22.27
2024-02-19T14:46:31.611Z,22.25
2024-02-19T14:49:01.845Z,22.24
2024-02-19T14:51:32.250Z,22.22
2024-02-19T14:54:03.760Z,22.20
2024-02-19T14:56:34.525Z,22.20
2024-02-19T14:59:06.264Z,22.17
2024-02-19T15:01:36.424Z,22.16
2024-02-19T15:04:07.146Z,22.15
2024-02-19T15:06:37.013Z,22.12
2024-02-19T15:09:08.628Z,22.10
2024-02-19T15:11:40.196Z,22.08
2024-02-19T15:14:10.864Z,22.07
2024-02-19T15:16:40.990Z,22.05
2024-02-19T15:19:14.256Z,22.03
2024-02-19T15:21:44.011Z,22.02
2024-02-19T15:24:14.196Z,22.00
2024-02-19T15:26:44.256Z,22.00
2024-02-19T15:29:17.084Z,21.98
2024-02-19T15:31:47.078Z,21.96
2024-02-19T15:34:17.022Z,21.95
2024-02-19T15:36:48.620Z,21.93
2024-02-19T15:39:18.974Z,21.86
2024-02-19T15:41:51.110Z,21.89
2024-02-19T15:44:22.531Z,21.89
2024-02-19T15:46:54.834Z,21.86
2024-02-19T15:49:27.059Z,21.86
2024-02-19T15:51:57.984Z,21.84
2024-02-19T15:54:30.568Z,21.76
2024-02-19T15:57:01.546Z,21.80
2024-02-19T15:59:31.770Z,21.79
2024-02-19T16:02:01.912Z,21.77
2024-02-19T16:04:31.951Z,21.75
2024-02-19T16:07:02.159Z,21.75
2024-02-19T16:09:32.826Z,21.73
2024-02-19T16:12:02.698Z,21.71
2024-02-19T16:14:33.441Z,21.71
2024-02-19T16:17:04.338Z,21.68
2024-02-19T16:19:34.412Z,21.68
2024-02-19T16:22:04.860Z,21.66
2024-02-19T16:24:36.600Z,21.64
2024-02-19T16:27:07.935Z,21.63
2024-02-19T16:29:38.889Z,21.61
2024-02-19T16:32:09.267Z,21.61
2024-02-19T16:34:43.727Z,21.59
2024-02-19T16:37:13.483Z,21.58
2024-02-19T16:39:45.104Z,21.58
2024-02-19T16:42:15.055Z,21.59
2024-02-19T16:44:45.909Z,21.61
2024-02-19T16:47:16.051Z,21.62
2024-02-19T16:49:47.543Z,21.63
2024-02-19T16:52:17.603Z,21.65
2024-02-19T16:54:47.705Z,21.67
2024-02-19T16:57:17.916Z,21.69
2024-02-19T16:59:47.848Z,21.71
2024-02-19T17:02:18.001Z,21.73
2024-02-19T17:04:49.472Z,21.76
2024-02-19T17:07:20.429Z,21.77
2024-02-19T17:09:50.612Z,21.80
2024-02-19T17:12:20.798Z,21.83
2024-02-19T17:14:52.120Z,21.83
2024-02-19T17:17:23.411Z,21.84
2024-02-19T17:19:53.804Z,21.83
2024-02-19T17:22:24.998Z,21.84
2024-02-19T17:24:56.035Z,21.75
2024-02-19T17:27:26.871Z,21.82
2024-02-19T17:29:57.027Z,21.80
2024-02-19T17:32:28.056Z,21.82
2024-02-19T17:34:59.571Z,21.81
2024-02-19T17:37:30.227Z,21.80
2024-02-19T17:40:00.360Z,21.79
2024-02-19T17:42:33.476Z,21.78
2024-02-19T17:45:03.598Z,21.78
2024-02-19T17:47:34.027Z,21.77
2024-02-19T17:50:05.104Z,21.76
2024-02-19T17:52:35.098Z,21.75
2024-02-19T17:55:05.121Z,21.75
2024-02-19T17:57:36.548Z,21.74
2024-02-19T18:00:07.072Z,21.73
2024-02-19T18:02:37.111Z,21.71
2024-02-19T18:05:07.454Z,21.67
2024-02-19T18:07:37.367Z,21.60
2024-02-19T18:10:09.449Z,21.69
2024-02-19T18:12:39.656Z,21.68
2024-02-19T18:15:10.427Z,21.68
2024-02-19T18:17:40.356Z,21.66
2024-02-19T18:20:11.806Z,21.66
2024-02-19T18:22:41.966Z,21.66
2024-02-19T18:25:12.295Z,21.64
2024-02-19T18:27:42.230Z,21.64
2024-02-19T18:30:14.024Z,21.63
2024-02-19T18:32:44.297Z,21.62
2024-02-19T18:35:14.408Z,21.61
2024-02-19T18:37:45.504Z,21.61
2024-02-19T18:40:16.041Z,21.60
2024-02-19T18:42:46.870Z,21.59
2024-02-19T18:45:16.860Z,21.59
2024-02-19T18:47:47.968Z,21.58
2024-02-19T18:50:17.922Z,21.56
2024-02-19T18:52:48.097Z,21.57
2024-02-19T18:55:19.277Z,21.55
2024-02-19T18:57:52.645Z,21.56
2024-02-19T19:00:22.981Z,21.54
2024-02-19T19:02:54.484Z,21.54
2024-02-19T19:05:27.301Z,21.53
2024-02-19T19:07:58.378Z,21.53
2024-02-19T19:10:29.524Z,21.52
2024-02-19T19:12:59.801Z,21.50
2024-02-19T19:15:30.781Z,21.51
2024-02-19T19:18:04.447Z,21.51
2024-02-19T19:20:34.602Z,21.50
2024-02-19T19:23:05.650Z,21.50
2024-02-19T19:25:35.834Z,21.49
2024-02-19T19:28:06.334Z,21.50
2024-02-19T19:30:36.433Z,21.48
2024-02-19T19:33:06.754Z,21.47
2024-02-19T19:35:38.159Z,21.47
2024-02-19T19:38:08.237Z,21.48
2024-02-19T19:40:39.692Z,21.47
2024-02-19T19:43:09.805Z,21.47
2024-02-19T19:45:40.213Z,21.45
2024-02-19T19:48:10.724Z,21.45
2024-02-19T19:50:40.800Z,21.40
2024-02-19T19:53:11.071Z,21.44
2024-02-19T19:55:41.225Z,21.44
2024-02-19T19:58:17.325Z,21.44
2024-02-19T20:00:43.477Z,21.44
2024-02-19T20:03:13.505Z,21.44
2024-02-19T20:05:43.816Z,21.43
2024-02-19T20:08:13.821Z,21.44
2024-02-19T20:10:44.004Z,21.43
2024-02-19T20:13:14.189Z,21.42
2024-02-19T20:15:44.699Z,21.43
2024-02-19T20:18:16.178Z,21.43
2024-02-19T20:20:46.237Z,21.42
2024-02-19T20:23:17.360Z,21.43
2024-02-19T20:25:47.548Z,21.41
2024-02-19T20:28:17.608Z,21.42
2024-02-19T20:30:48.892Z,21.42
2024-02-19T20:33:19.111Z,21.41
2024-02-19T20:35:49.334Z,21.41
2024-02-19T20:38:19.692Z,21.41
2024-02-19T20:40:49.828Z,21.41
2024-02-19T20:43:20.400Z,21.41
2024-02-19T20:45:54.136Z,21.41
2024-02-19T20:48:27.618Z,21.41
2024-02-19T20:51:00.397Z,21.41
2024-02-19T20:53:30.452Z,21.42
2024-02-19T20:56:00.474Z,21.42
2024-02-19T20:58:30.515Z,21.42
2024-02-19T21:01:00.613Z,21.41
2024-02-19T21:03:36.033Z,21.41
2024-02-19T21:06:02.121Z,21.42
2024-02-19T21:08:31.978Z,21.42
2024-02-19T21:11:03.660Z,21.43
2024-02-19T21:13:35.421Z,21.44
2024-02-19T21:16:05.717Z,21.44
2024-02-19T21:18:46.287Z,21.44
2024-02-19T21:21:12.174Z,21.44
2024-02-19T21:23:39.830Z,21.46
2024-02-19T21:26:10.023Z,21.46
2024-02-19T21:28:39.767Z,21.47
2024-02-19T21:31:09.695Z,21.49
2024-02-19T21:33:39.821Z,21.49
2024-02-19T21:36:11.545Z,21.49
2024-02-19T21:38:41.595Z,21.50
2024-02-19T21:41:11.553Z,21.50
2024-02-19T21:43:41.475Z,21.52
2024-02-19T21:46:11.495Z,21.53
2024-02-19T21:48:43.658Z,21.54
2024-02-19T21:51:15.135Z,21.55
2024-02-19T21:53:45.146Z,21.42
2024-02-19T21:56:15.323Z,21.56
2024-02-19T21:58:45.043Z,21.57
2024-02-19T22:01:14.932Z,21.58
2024-02-19T22:03:45.092Z,21.59
2024-02-19T22:06:15.095Z,21.59
2024-02-19T22:08:45.072Z,21.62
2024-02-19T22:11:16.648Z,21.62
2024-02-19T22:13:46.790Z,21.63
2024-02-19T22:16:17.517Z,21.65
2024-02-19T22:18:49.102Z,21.66
2024-02-19T22:21:19.073Z,21.67
2024-02-19T22:23:50.183Z,21.68
2024-02-19T22:26:20.226Z,21.69
2024-02-19T22:28:50.248Z,21.71
2024-02-19T22:31:23.200Z,21.73
2024-02-19T22:33:53.372Z,21.73
2024-02-19T22:36:23.490Z,21.75
2024-02-19T22:38:53.658Z,21.75
2024-02-19T22:41:23.670Z,21.77
2024-02-19T22:43:54.064Z,21.79
2024-02-19T22:46:24.012Z,21.80
2024-02-19T22:48:54.397Z,21.82
2024-02-19T22:51:24.642Z,21.83
2024-02-19T22:53:54.661Z,21.84
2024-02-19T22:56:26.689Z,21.82
2024-02-19T22:59:06.923Z,21.87
2024-02-19T23:01:29.781Z,21.87
2024-02-19T23:04:01.539Z,21.91
2024-02-19T23:06:31.582Z,21.93
2024-02-19T23:09:02.092Z,21.94
2024-02-19T23:11:32.112Z,21.95
2024-02-19T23:14:01.961Z,21.96
2024-02-19T23:16:31.876Z,21.98
2024-02-19T23:19:02.137Z,21.98
2024-02-19T23:21:32.268Z,22.00
2024-02-19T23:24:02.223Z,22.02
2024-02-19T23:26:32.195Z,22.02
2024-02-19T23:29:02.112Z,22.03
2024-02-19T23:31:32.571Z,22.04
2024-02-19T23:34:04.025Z,22.07
2024-02-19T23:36:35.599Z,22.08
2024-02-19T23:39:06.623Z,22.08
2024-02-19T23:41:38.158Z,22.09
2024-02-19T23:44:11.162Z,22.11
2024-02-19T23:46:41.096Z,22.11
2024-02-19T23:49:13.617Z,22.13
2024-02-19T23:51:47.142Z,22.13
2024-02-19T23:54:18.489Z,22.15
2024-02-19T23:56:48.809Z,22.14
2024-02-19T23:59:19.006Z,22.15
